Aérodrome :
LOGIN :

S'inscrire | Disclaimer

   EN    FR    IT 

 










Légende :    VFR   VFR Marginal   IFR   IFR Intensif   IFR Très Intensif
Visi : 
Plafond : 
>= 8 km
>= 3000ft
5 à 8 km
1000 à 3000 ft
1500m à 5 km
500 à 1000 ft
800 à 1500m
200 à 500 ft
< 800m
< 200 ft
Symboles :   Orages  Brouillard  Fortes neiges  Fortes précipitations  Vent > 20 kt
SIGMETs :   Divers  Orages  Givrage  Turbulence  Onde Orograph.  Cendres Volcan.







- Altitude de l'aérodrome : 353 ft
- Code IATA : LIN


LIML - Milano Linate

DERNIER METAR :
  • 190420Z 00000KT 0500 R36/0325N FG NSC 02/02 Q1014 NOSIG

METARs EXPIRÉS :
  • 190350Z 00000KT 0500 R36/0400V0650U FG NSC 02/02 Q1014 NOSIG
  • 190250Z 03002KT 0500 R36/0350V0500U FG NSC 01/01 Q1014 NOSIG
  • 190220Z 00000KT 0500 R36/0250V0350N FG NSC 02/02 Q1014 NOSIG

TAF AMD TAF LIML
Valide du 19 à 00h jusqu'au 20 à 00h UTC


190049Z 1900/1924 VRB05KT 0500 FG BKN005
BECMG 1907/1910 7000 SCT015
BECMG 1920/1922 3000 BCFG
Pas de NOTAMs connus pour ce terrain.



MET'MAP, la Météo Aéronautique d'un coup d'oeil ! - Copyright ORBIFLY Décembre 2007 - Disclaimer

ORBIFLY MET'MAP TEAM :

Programmation & Développement : Alexandra Zaïnal
Conception & Développement : Baudouin d'Aumeries
Co-Programmation & Développement : Marc-Olivier Méhu
Soutien technique & logistique : Manuel Goepfert

Contact : metmap@orbifly.com




SOURCES & CREDITS :

   NOAA